Create Tblcommutelog Verified Points Advance Search
| # | Trip ID | Id Commuter | Trip Date | Trip Num | Current Lat | Current Lng | Delta Distance | Current Time | Activity | Activity Confidence | Current Speed | |
|---|---|---|---|---|---|---|---|---|---|---|---|---|
| 69501 | 250729_760008_16626628_1657 | 760008 | (not set) | (not set) | 38.9127819 | -77.0544974 | 5.7184 | 2025-07-29 17:42:02 | on_bicycle | 100 | 3.1560971684533 | |
| 69502 | 250729_760008_16626628_1657 | 760008 | (not set) | (not set) | 38.909542 | -77.0505691 | 5.4039 | 2025-07-29 17:40:39 | on_bicycle | 100 | 2.4095416059438 | |
| 69503 | 250729_760008_16626628_1657 | 760008 | (not set) | (not set) | 38.9091119 | -77.0516116 | 5.3403 | 2025-07-29 17:40:18 | on_bicycle | 100 | 2.6867059465162 | |
| 69504 | 250729_760008_16626628_1657 | 760008 | (not set) | (not set) | 38.9103633 | -77.051067 | 5.4666 | 2025-07-29 17:41:00 | on_bicycle | 100 | 2.4944790651515 | |
| 69505 | 250729_760008_16626628_1657 | 760008 | (not set) | (not set) | 38.9103633 | -77.051067 | 5.4666 | 2025-07-29 17:41:00 | on_bicycle | 100 | 2.4944790651515 | |
| 69506 | 250729_760008_16626628_1657 | 760008 | (not set) | (not set) | 38.9120412 | -77.0530323 | 5.6243 | 2025-07-29 17:41:34 | on_bicycle | 100 | 3.6031364274411 | |
| 69507 | 250729_786871_16655329_1636 | 786871 | (not set) | (not set) | 39.404723522377 | -76.811165963979 | 14.377 | 2025-07-29 18:00:54 | in_vehicle | 100 | 6.1870233443901 | |
| 69508 | 250729_760008_16626628_1657 | 760008 | (not set) | (not set) | 38.9111264 | -77.0517514 | 5.5308 | 2025-07-29 17:41:16 | on_bicycle | 100 | 3.5763140719018 | |
| 69509 | 250729_760008_16626628_1657 | 760008 | (not set) | (not set) | 38.9120412 | -77.0530323 | 5.6243 | 2025-07-29 17:41:34 | on_bicycle | 100 | 3.6031364274411 | |
| 69510 | 250729_760008_16626628_1657 | 760008 | (not set) | (not set) | 38.9140543 | -77.0561677 | 5.8444 | 2025-07-29 17:42:32 | on_bicycle | 100 | 2.838699294572 | |
| 69511 | 250729_760008_16626628_1657 | 760008 | (not set) | (not set) | 38.913372 | -77.0553887 | 5.7814 | 2025-07-29 17:42:16 | on_bicycle | 100 | 2.9683406796785 | |
| 69512 | 250729_760008_16626628_1657 | 760008 | (not set) | (not set) | 38.9127819 | -77.0544974 | 5.7184 | 2025-07-29 17:42:02 | on_bicycle | 100 | 3.1560971684533 | |
| 69513 | 250729_760008_16626628_1657 | 760008 | (not set) | (not set) | 38.9111264 | -77.0517514 | 5.5308 | 2025-07-29 17:41:16 | on_bicycle | 100 | 3.5763140719018 | |
| 69514 | 250729_760008_16626628_1657 | 760008 | (not set) | (not set) | 38.9146479 | -77.0570815 | 5.9085 | 2025-07-29 17:42:49 | on_bicycle | 100 | 2.3737784652248 | |
| 69515 | 250729_760008_16626628_1657 | 760008 | (not set) | (not set) | 38.9146479 | -77.0570815 | 5.9085 | 2025-07-29 17:42:49 | on_bicycle | 100 | 2.3737784652248 | |
| 69516 | 250729_760008_16626628_1657 | 760008 | (not set) | (not set) | 38.913372 | -77.0553887 | 5.7814 | 2025-07-29 17:42:16 | on_bicycle | 100 | 2.9683406796785 | |
| 69517 | 250729_760008_16626628_1657 | 760008 | (not set) | (not set) | 38.9160361 | -77.0586331 | 6.0373 | 2025-07-29 17:43:25 | on_bicycle | 100 | 1.7076899693331 | |
| 69518 | 250729_760008_16626628_1657 | 760008 | (not set) | (not set) | 38.9152562 | -77.0580196 | 5.9742 | 2025-07-29 17:43:06 | on_bicycle | 100 | 2.7403506575947 | |
| 69519 | 250729_760008_16626628_1657 | 760008 | (not set) | (not set) | 38.9140543 | -77.0561677 | 5.8444 | 2025-07-29 17:42:32 | on_bicycle | 100 | 2.838699294572 | |
| 69520 | 250729_760008_16626628_1657 | 760008 | (not set) | (not set) | 38.9152562 | -77.0580196 | 5.9742 | 2025-07-29 17:43:06 | on_bicycle | 100 | 2.7403506575947 |